Portada
METAR-TAF:

METAR-TAF

Aeropuertos :

Aviñón, Francia

Aeropuerto de Aviñón-Provenza

latitud: 43-54-26N, longitud: 004-54-07E, altitud: 38 m

Observación

El informe se hizo hace 14 minutos, a las 09:00 UTC
Viento 2 kt con dirección variable
Temperatura 17°C
Humedad 55%
Presión 1019 hPa
Visibilidad 10 km o más
sin nubes por debajo de 1500 m y sin presencia de cumulonimbus.

METAR: LFMV 240900Z AUTO VRB02KT CAVOK 17/08 Q1019 NOSIG

Hora: 11:14 (09:14 UTC)

Pronóstico

El informe se hizo hace 1 hora y 14 minutos, a las 08:00 UTC
Pronóstico válido del 24 a las 09 UTC al 25 a las 09 UTC
Viento 3 kt con dirección variable
Visibilidad 10 km o más
sin nubes por debajo de 1500 m y sin presencia de cumulonimbus.
Temporalmente
del 24 a las 11 UTC al 24 a las 21 UTC
Viento 13 kt del sur

TAF: LFMV 240800Z 2409/2509 VRB03KT CAVOK TEMPO 2411/2421 18013KT

Observaciones y pronósticos meteorológicos de más de 4000 aeropuertos (mensajes METAR y TAF).

Los puntos amarillos y rojos representan las estaciones disponibles.

Ponga el ratón en el punto deseado para ver el nombre de la estación.

Haga clic para ver las observaciones y los pronósticos meteorológicos.

Para cambiar el mapa : haga clic en los botones verdes con una cruz de color negro para hacer un zoom, en el botón verde con un guión para alejar o en las flechas verdes para mapas adyacentes.


METAR-TAF: